Time;durP1;ratioP1;P1;durP2;ratioP2;P2;SDS_P1;SDS_P2;PMS_P1;PMS_P2;Temp;Humidity;BMP_temperature;BMP_pressure;BME280_temperature;BME280_humidity;BME280_pressure;Samples;Min_cycle;Max_cycle;Signal;HPM_P1;HPM_P2
2022/10/16 00:00:36;;;;;;;7.87;3.47;;;;;;;-145.18;100.00;46699.47;5091258;28;20039;-69
2022/10/16 00:03:02;;;;;;;8.67;3.63;;;;;;;-145.18;100.00;46693.59;5090369;28;20032;-69
2022/10/16 00:05:28;;;;;;;7.33;3.23;;;;;;;-145.18;100.00;46689.69;5091415;28;20046;-68
2022/10/16 00:07:53;;;;;;;9.93;3.50;;;;;;;-145.18;100.00;46703.38;5091238;28;20028;-69
2022/10/16 00:10:19;;;;;;;15.10;3.27;;;;;;;-145.18;100.00;46699.47;5091277;28;20036;-69
2022/10/16 00:12:44;;;;;;;11.27;3.30;;;;;;;-145.18;100.00;46691.66;5091070;28;20503;-69
2022/10/16 00:15:09;;;;;;;12.13;3.63;;;;;;;-145.18;100.00;46703.38;5091209;28;20089;-69
2022/10/16 00:17:35;;;;;;;7.53;3.20;;;;;;;-145.18;100.00;46693.59;5090726;28;20039;-68
2022/10/16 00:20:00;;;;;;;8.80;3.40;;;;;;;-145.18;100.00;46695.56;5091190;28;20476;-68
2022/10/16 00:22:26;;;;;;;8.50;3.17;;;;;;;-145.18;100.00;46699.47;5090667;28;20047;-69
2022/10/16 00:24:51;;;;;;;5.77;3.13;;;;;;;-145.18;100.00;46703.38;5090667;28;20056;-69
2022/10/16 00:27:17;;;;;;;7.07;3.10;;;;;;;-145.18;100.00;46687.75;5090815;28;20498;-69
2022/10/16 00:29:43;;;;;;;7.07;3.30;;;;;;;-145.18;100.00;46695.56;5090818;28;20028;-69
2022/10/16 00:32:08;;;;;;;7.93;3.60;;;;;;;-145.18;100.00;46693.59;5090734;28;20516;-69
2022/10/16 00:34:34;;;;;;;5.70;3.23;;;;;;;-145.18;100.00;46695.56;5090765;28;20495;-69
2022/10/16 00:36:59;;;;;;;5.73;3.17;;;;;;;-145.18;100.00;46693.59;5090846;28;20059;-69
2022/10/16 00:39:25;;;;;;;8.13;3.47;;;;;;;-145.18;100.00;46691.66;5091009;28;20413;-69
2022/10/16 00:41:51;;;;;;;8.70;3.30;;;;;;;-145.18;100.00;46693.59;5089263;28;20028;-69
2022/10/16 00:44:56;;;;;;;6.87;3.00;;;;;;;-145.18;100.00;46689.69;5090775;28;20035;-69
2022/10/16 00:47:30;;;;;;;7.20;3.00;;;;;;;-145.18;100.00;46687.75;5090333;28;20066;-68
2022/10/16 00:50:05;;;;;;;5.47;2.77;;;;;;;-145.18;100.00;46691.66;5090852;28;20048;-68
2022/10/16 00:52:30;;;;;;;6.77;3.10;;;;;;;-145.18;100.00;46699.47;5090270;28;20496;-69
2022/10/16 00:54:56;;;;;;;12.63;3.40;;;;;;;-145.18;100.00;46693.59;5090389;28;20036;-69
2022/10/16 00:57:22;;;;;;;5.33;2.87;;;;;;;-145.18;100.00;46689.69;5090568;28;20028;-69
2022/10/16 00:59:48;;;;;;;8.57;3.30;;;;;;;-145.18;100.00;46681.88;5090186;28;20056;-69
2022/10/16 01:02:15;;;;;;;9.07;3.27;;;;;;;-145.18;100.00;46685.78;5090513;28;20032;-69
2022/10/16 01:04:45;;;;;;;5.03;3.53;;;;;;;-145.18;100.00;46701.41;5090643;28;20447;-69
2022/10/16 01:07:34;;;;;;;8.17;3.63;;;;;;;-145.18;100.00;46681.88;5090092;28;20070;-69
2022/10/16 01:10:05;;;;;;;6.23;3.20;;;;;;;-145.18;100.00;46689.69;5090612;28;20506;-69
2022/10/16 01:12:41;;;;;;;6.93;3.13;;;;;;;-145.18;100.00;46689.69;5090038;28;20123;-69
2022/10/16 01:15:21;;;;;;;9.17;3.10;;;;;;;-145.18;100.00;46687.75;5090297;28;20042;-69
2022/10/16 01:18:13;;;;;;;8.20;3.60;;;;;;;-145.18;100.00;46683.84;5090041;28;20551;-69
2022/10/16 01:20:47;;;;;;;9.13;3.63;;;;;;;-145.18;100.00;46685.78;5090066;28;20024;-69
2022/10/16 01:23:16;;;;;;;5.50;2.90;;;;;;;-145.18;100.00;46679.94;5090312;28;20032;-69
2022/10/16 01:26:02;;;;;;;6.87;3.30;;;;;;;-145.18;100.00;46691.66;5089781;28;20113;-69
2022/10/16 01:28:38;;;;;;;8.10;3.10;;;;;;;-145.18;100.00;46689.69;5090096;28;20392;-69
2022/10/16 01:31:04;;;;;;;;;;;;;;;-145.18;100.00;46681.88;5090737;28;20380;-69
2022/10/16 01:33:44;;;;;;;8.00;3.35;;;;;;;-145.18;100.00;46681.88;5089619;28;19920;-69
2022/10/16 01:36:28;;;;;;;5.23;3.10;;;;;;;-145.18;100.00;46691.66;5092061;28;20032;-69
2022/10/16 01:38:58;;;;;;;7.77;2.73;;;;;;;-145.18;100.00;46679.94;5094236;28;20028;-69
2022/10/16 01:41:43;;;;;;;6.77;2.50;;;;;;;-145.18;100.00;46685.78;5094149;28;20123;-69
2022/10/16 01:44:12;;;;;;;6.57;2.90;;;;;;;-145.18;100.00;46687.75;5094254;28;20050;-69
2022/10/16 01:46:40;;;;;;;3.60;2.43;;;;;;;-145.18;100.00;46685.78;5093741;28;20032;-69
2022/10/16 01:49:08;;;;;;;7.00;2.60;;;;;;;-145.18;100.00;46685.78;5094287;28;20020;-69
2022/10/16 01:51:35;;;;;;;4.47;2.90;;;;;;;-145.18;100.00;46683.84;5093785;28;20028;-69
2022/10/16 01:54:02;;;;;;;4.60;2.70;;;;;;;-145.18;100.00;46679.94;5094049;28;20488;-69
2022/10/16 01:56:29;;;;;;;4.53;2.70;;;;;;;-145.18;100.00;46683.84;5093652;28;20036;-68
2022/10/16 01:59:01;;;;;;;3.37;2.50;;;;;;;-145.18;100.00;46689.69;5093955;28;20060;-69
2022/10/16 02:01:30;;;;;;;4.83;2.43;;;;;;;-145.18;100.00;46689.69;5093886;28;20027;-69
2022/10/16 02:04:01;;;;;;;7.03;2.80;;;;;;;-145.18;100.00;46685.78;5093739;28;20024;-68
2022/10/16 02:06:26;;;;;;;3.93;2.37;;;;;;;-145.18;100.00;46691.66;5093721;28;20077;-69
2022/10/16 02:08:53;;;;;;;4.13;2.87;;;;;;;-145.18;100.00;46683.84;5093540;28;20451;-69
2022/10/16 02:11:18;;;;;;;6.80;2.90;;;;;;;-145.18;100.00;46693.59;5093598;28;20071;-69
2022/10/16 02:13:52;;;;;;;4.90;2.53;;;;;;;-145.18;100.00;46691.66;5091989;28;20056;-69
2022/10/16 02:16:18;;;;;;;6.27;2.60;;;;;;;-145.18;100.00;46681.88;5093662;28;20032;-69
2022/10/16 02:18:43;;;;;;;3.93;2.30;;;;;;;-145.18;100.00;46679.94;5093184;28;20101;-69
2022/10/16 02:21:49;;;;;;;2.70;2.03;;;;;;;-145.18;100.00;46685.78;5093379;28;20036;-69
2022/10/16 02:24:31;;;;;;;3.50;2.07;;;;;;;-145.18;100.00;46677.97;5089621;28;20121;-69
2022/10/16 02:27:11;;;;;;;3.30;2.20;;;;;;;-145.18;100.00;46687.75;5093079;28;20052;-69
2022/10/16 02:29:45;;;;;;;5.90;2.43;;;;;;;-145.18;100.00;46689.69;5093192;28;20024;-69
2022/10/16 02:32:15;;;;;;;4.33;2.50;;;;;;;-145.18;100.00;46677.97;5092924;28;20016;-69
2022/10/16 02:34:41;;;;;;;7.13;2.70;;;;;;;-145.18;100.00;46679.94;5092986;28;20031;-69
2022/10/16 02:37:07;;;;;;;3.77;2.10;;;;;;;-145.18;100.00;46677.97;5093020;28;20388;-69
2022/10/16 02:39:33;;;;;;;3.77;2.27;;;;;;;-145.18;100.00;46674.06;5093000;28;20050;-68
2022/10/16 02:41:59;;;;;;;4.67;2.40;;;;;;;-145.18;100.00;46676.03;5093041;28;20119;-69
2022/10/16 02:44:24;;;;;;;3.03;1.93;;;;;;;-145.18;100.00;46683.84;5092985;28;20488;-69
2022/10/16 02:46:49;;;;;;;4.57;2.30;;;;;;;-145.18;100.00;46681.88;5092048;28;20035;-69
2022/10/16 02:49:15;;;;;;;10.90;2.63;;;;;;;-145.18;100.00;46681.88;5092922;28;20035;-69
2022/10/16 02:51:40;;;;;;;6.10;2.70;;;;;;;-145.18;100.00;46681.88;5092625;28;20056;-69
2022/10/16 02:54:05;;;;;;;4.87;2.40;;;;;;;-145.18;100.00;46676.03;5092843;28;20027;-69
2022/10/16 02:56:31;;;;;;;3.43;2.07;;;;;;;-145.18;100.00;46683.84;5091203;28;20036;-69
2022/10/16 02:58:57;;;;;;;3.27;2.10;;;;;;;-145.18;100.00;46689.69;5092735;28;20056;-69
2022/10/16 03:01:23;;;;;;;4.13;2.33;;;;;;;-145.18;100.00;46681.88;5144565;23;20054;-84
2022/10/16 03:03:49;;;;;;;3.63;2.07;;;;;;;-145.18;100.00;46679.94;5055546;23;20048;-68
2022/10/16 03:06:14;;;;;;;4.50;2.20;;;;;;;-145.18;100.00;46676.03;5071473;28;20056;-68
2022/10/16 03:08:40;;;;;;;6.03;2.40;;;;;;;-145.18;100.00;46679.94;5072143;28;20046;-68
2022/10/16 03:11:05;;;;;;;3.40;2.00;;;;;;;-145.18;100.00;46674.06;5072864;28;20140;-67
2022/10/16 03:13:30;;;;;;;4.73;2.20;;;;;;;-145.18;100.00;46677.97;5071706;28;20123;-68
2022/10/16 03:15:56;;;;;;;3.70;2.00;;;;;;;-145.18;100.00;46677.97;5072308;28;20509;-68
2022/10/16 03:18:21;;;;;;;4.17;2.23;;;;;;;-145.18;100.00;46676.03;5070915;28;20416;-67
2022/10/16 03:20:46;;;;;;;8.20;2.10;;;;;;;-145.18;100.00;46679.94;5072405;28;20127;-68
2022/10/16 03:23:12;;;;;;;6.50;2.00;;;;;;;-145.18;100.00;46685.78;5072006;28;20068;-68
2022/10/16 03:25:38;;;;;;;3.10;1.80;;;;;;;-145.18;100.00;46683.84;5071995;28;20086;-68
2022/10/16 03:28:04;;;;;;;6.77;2.10;;;;;;;-145.18;100.00;46677.97;5071893;28;20074;-68
2022/10/16 03:30:29;;;;;;;6.93;2.23;;;;;;;-145.18;100.00;46679.94;5072853;28;20107;-68
2022/10/16 03:32:54;;;;;;;4.40;2.00;;;;;;;-145.18;100.00;46679.94;5071596;28;20025;-68
2022/10/16 03:35:21;;;;;;;4.17;2.20;;;;;;;-145.18;100.00;46679.94;5071846;28;20068;-68
2022/10/16 03:37:46;;;;;;;6.57;1.97;;;;;;;-145.18;100.00;46672.13;5071642;28;20597;-68
2022/10/16 03:40:13;;;;;;;5.57;2.00;;;;;;;-145.18;100.00;46676.03;5072163;28;20028;-68
2022/10/16 03:42:38;;;;;;;3.43;1.97;;;;;;;-145.18;100.00;46672.13;5071623;28;20036;-68
2022/10/16 03:45:05;;;;;;;2.90;2.00;;;;;;;-145.18;100.00;46672.13;5072159;28;20394;-68
2022/10/16 03:47:32;;;;;;;6.10;1.87;;;;;;;-145.18;100.00;46676.03;5071351;28;20545;-68
2022/10/16 03:49:58;;;;;;;3.90;1.63;;;;;;;-145.18;100.00;46674.06;5071806;28;20102;-68
2022/10/16 03:52:24;;;;;;;4.97;2.30;;;;;;;-145.18;100.00;46677.97;5071756;28;20622;-68
2022/10/16 03:54:49;;;;;;;5.03;2.00;;;;;;;-145.18;100.00;46679.94;5071235;28;20477;-68
2022/10/16 03:57:14;;;;;;;5.63;2.50;;;;;;;-145.18;100.00;46674.06;5071332;28;20036;-68
2022/10/16 03:59:40;;;;;;;3.90;1.93;;;;;;;-145.18;100.00;46676.03;5070456;28;20032;-67
2022/10/16 04:02:05;;;;;;;7.27;2.77;;;;;;;-145.18;100.00;46676.03;5070932;28;20036;-68
2022/10/16 04:04:30;;;;;;;3.57;1.67;;;;;;;-145.18;100.00;46677.97;5065375;28;20044;-68
2022/10/16 04:06:56;;;;;;;3.93;1.90;;;;;;;-145.18;100.00;46677.97;5060462;28;20086;-68
2022/10/16 04:09:21;;;;;;;13.17;2.20;;;;;;;-145.18;100.00;46674.06;5061578;28;20033;-67
2022/10/16 04:11:47;;;;;;;3.90;2.43;;;;;;;-145.18;100.00;46677.97;5060804;28;20533;-68
2022/10/16 04:14:12;;;;;;;4.10;1.97;;;;;;;-145.18;100.00;46674.06;5061836;28;20044;-68
2022/10/16 04:16:37;;;;;;;3.80;2.30;;;;;;;-145.18;100.00;46677.97;5059594;28;20182;-68
2022/10/16 04:19:03;;;;;;;9.43;2.70;;;;;;;-145.18;100.00;46670.16;5064090;28;20031;-68
2022/10/16 04:21:28;;;;;;;4.80;2.97;;;;;;;-145.18;100.00;46683.84;5058172;28;20532;-68
2022/10/16 04:23:54;;;;;;;7.40;2.33;;;;;;;-145.18;100.00;46674.06;5056169;28;20269;-68
2022/10/16 04:26:19;;;;;;;9.13;2.53;;;;;;;-145.18;100.00;46668.22;5061554;28;20020;-68
2022/10/16 04:28:44;;;;;;;10.60;3.47;;;;;;;-145.18;100.00;46672.13;5064850;28;20056;-68
2022/10/16 04:31:10;;;;;;;4.90;2.00;;;;;;;-145.18;100.00;46670.16;5059571;28;20029;-68
2022/10/16 04:33:35;;;;;;;5.77;2.50;;;;;;;-145.18;100.00;46676.03;5050151;28;20036;-68
2022/10/16 04:36:02;;;;;;;4.07;2.30;;;;;;;-145.18;100.00;46676.03;5057625;28;20071;-69
2022/10/16 04:38:28;;;;;;;4.23;2.20;;;;;;;-145.18;100.00;46668.22;5067428;28;20119;-69
2022/10/16 04:40:53;;;;;;;3.73;2.27;;;;;;;-145.18;100.00;46676.03;5054173;28;20366;-69
2022/10/16 04:43:19;;;;;;;4.07;1.77;;;;;;;-145.18;100.00;46672.13;5070016;28;20079;-69
2022/10/16 04:45:44;;;;;;;6.20;2.53;;;;;;;-145.18;100.00;46674.06;5070134;28;20029;-69
2022/10/16 04:48:09;;;;;;;6.57;2.30;;;;;;;-145.18;100.00;46670.16;5070149;28;20056;-69
2022/10/16 04:50:35;;;;;;;3.53;2.10;;;;;;;-145.18;100.00;46674.06;5070677;28;20078;-69
2022/10/16 04:53:00;;;;;;;3.80;2.37;;;;;;;-145.18;100.00;46674.06;5070161;28;20024;-69
2022/10/16 04:55:26;;;;;;;6.97;2.47;;;;;;;-145.18;100.00;46679.94;5070374;28;20484;-69
2022/10/16 04:57:51;;;;;;;8.60;2.40;;;;;;;-145.18;100.00;46674.06;5069811;28;20515;-69
2022/10/16 05:00:17;;;;;;;3.77;2.33;;;;;;;-145.18;100.00;46677.97;5070498;28;20429;-69
2022/10/16 05:02:42;;;;;;;5.87;1.97;;;;;;;-145.18;100.00;46677.97;5069507;28;20049;-68
2022/10/16 05:05:08;;;;;;;8.57;2.40;;;;;;;-145.18;100.00;46674.06;5070479;28;20052;-69
2022/10/16 05:07:33;;;;;;;3.50;2.30;;;;;;;-145.18;100.00;46683.84;5071142;28;20036;-69
2022/10/16 05:09:58;;;;;;;5.10;2.50;;;;;;;-145.18;100.00;46670.16;5090598;28;20032;-69
2022/10/16 05:12:24;;;;;;;5.87;2.50;;;;;;;-145.18;100.00;46677.97;5090126;28;20032;-69
2022/10/16 05:14:49;;;;;;;6.13;2.40;;;;;;;-145.18;100.00;46670.16;5090629;28;20076;-68
2022/10/16 05:17:14;;;;;;;4.20;2.13;;;;;;;-145.18;100.00;46677.97;5090567;28;20400;-69
2022/10/16 05:19:40;;;;;;;4.47;2.30;;;;;;;-145.18;100.00;46679.94;5090288;28;20490;-69
2022/10/16 05:22:05;;;;;;;4.83;2.60;;;;;;;-145.18;100.00;46674.06;5069774;28;20632;-69
2022/10/16 05:24:30;;;;;;;15.77;2.37;;;;;;;-145.18;100.00;46672.13;5069589;28;20044;-69
2022/10/16 05:26:56;;;;;;;7.17;2.77;;;;;;;-145.18;100.00;46668.22;5070289;28;20127;-69
2022/10/16 05:29:22;;;;;;;4.47;2.90;;;;;;;-145.18;100.00;46677.97;5064123;28;20039;-69
2022/10/16 05:31:50;;;;;;;3.70;2.27;;;;;;;-145.18;100.00;46679.94;5063968;28;20032;-69
2022/10/16 05:34:15;;;;;;;3.17;2.10;;;;;;;-145.18;100.00;46672.13;5066844;28;20771;-69
2022/10/16 05:36:41;;;;;;;8.80;2.90;;;;;;;-145.18;100.00;46670.16;5068382;28;20036;-69
2022/10/16 05:39:06;;;;;;;8.53;2.80;;;;;;;-145.18;100.00;46668.22;5069415;28;20520;-69
2022/10/16 05:41:32;;;;;;;8.10;2.47;;;;;;;-145.18;100.00;46676.03;5069919;28;20408;-69
2022/10/16 05:43:57;;;;;;;5.47;2.70;;;;;;;-145.18;100.00;46674.06;5073367;28;20107;-69
2022/10/16 05:46:22;;;;;;;6.33;2.60;;;;;;;-145.18;100.00;46674.06;5090068;28;20025;-69
2022/10/16 05:48:47;;;;;;;6.40;2.80;;;;;;;-145.18;100.00;46670.16;5089861;28;20040;-69
2022/10/16 05:51:14;;;;;;;8.00;3.00;;;;;;;-145.18;100.00;46668.22;5090398;28;20552;-69
2022/10/16 05:53:40;;;;;;;4.37;2.33;;;;;;;-145.18;100.00;46672.13;5089597;28;20030;-69
2022/10/16 05:56:09;;;;;;;7.70;3.07;;;;;;;-145.18;100.00;46674.06;5090210;28;20442;-69
2022/10/16 05:58:36;;;;;;;8.17;3.00;;;;;;;-145.18;100.00;46670.16;5089809;28;20024;-69
2022/10/16 06:01:04;;;;;;;6.70;2.83;;;;;;;-145.18;100.00;46670.16;5060568;28;20032;-69
2022/10/16 06:03:30;;;;;;;9.57;3.07;;;;;;;-145.18;100.00;46672.13;5069419;28;20804;-69
2022/10/16 06:05:55;;;;;;;4.33;2.30;;;;;;;-145.18;100.00;46679.94;5069217;28;20032;-69
2022/10/16 06:08:22;;;;;;;5.30;2.73;;;;;;;-145.18;100.00;46662.34;5069424;28;20089;-69
2022/10/16 06:10:48;;;;;;;9.37;2.93;;;;;;;-145.18;100.00;46666.25;5069300;28;20112;-69
2022/10/16 06:13:14;;;;;;;6.23;2.80;;;;;;;-145.18;100.00;46666.25;5069420;28;20645;-69
2022/10/16 06:15:41;;;;;;;6.33;2.47;;;;;;;-145.18;100.00;46674.06;5069140;28;20242;-69
2022/10/16 06:18:08;;;;;;;5.37;2.37;;;;;;;-145.18;100.00;46668.22;5069374;28;20029;-69
2022/10/16 06:20:34;;;;;;;8.37;2.57;;;;;;;-145.18;100.00;46676.03;5069306;28;20430;-69
2022/10/16 06:22:59;;;;;;;10.13;2.90;;;;;;;-145.18;100.00;46662.34;5071998;28;20115;-69
2022/10/16 06:25:24;;;;;;;9.13;3.27;;;;;;;-145.18;100.00;46666.25;5073131;28;20078;-69
2022/10/16 06:27:50;;;;;;;10.13;2.87;;;;;;;-145.18;100.00;46677.97;5072652;28;20088;-69
2022/10/16 06:30:15;;;;;;;4.03;2.67;;;;;;;-145.18;100.00;46670.16;5073029;28;20103;-69
2022/10/16 06:32:40;;;;;;;5.23;2.70;;;;;;;-145.18;100.00;46670.16;5055545;28;20104;-69
2022/10/16 06:35:06;;;;;;;5.40;2.80;;;;;;;-145.18;100.00;46670.16;5055754;28;20033;-69
2022/10/16 06:37:31;;;;;;;5.40;2.77;;;;;;;-145.18;100.00;46674.06;5072805;28;20032;-69
2022/10/16 06:39:56;;;;;;;4.53;3.00;;;;;;;-145.18;100.00;46674.06;5071967;28;20024;-69
2022/10/16 06:42:22;;;;;;;5.60;2.77;;;;;;;-145.18;100.00;46674.06;5072710;28;20035;-69
2022/10/16 06:44:47;;;;;;;7.40;2.70;;;;;;;-145.18;100.00;46677.97;5069739;28;20036;-69
2022/10/16 06:47:13;;;;;;;8.03;3.43;;;;;;;-145.18;100.00;46672.13;5072191;28;20115;-69
2022/10/16 06:49:38;;;;;;;3.87;2.53;;;;;;;-145.18;100.00;46672.13;5072074;28;20117;-69
2022/10/16 06:52:04;;;;;;;9.00;3.30;;;;;;;-145.18;100.00;46676.03;5072270;28;20040;-69
2022/10/16 06:54:29;;;;;;;7.97;3.20;;;;;;;-145.18;100.00;46681.88;5071048;28;20040;-69
2022/10/16 06:56:55;;;;;;;7.70;3.23;;;;;;;-145.18;100.00;46676.03;5071954;28;20037;-69
2022/10/16 06:59:21;;;;;;;7.27;3.17;;;;;;;-145.18;100.00;46672.13;5072082;28;20112;-69
2022/10/16 07:01:46;;;;;;;9.03;2.97;;;;;;;-145.18;100.00;46670.16;5063791;28;20025;-69
2022/10/16 07:04:12;;;;;;;8.60;3.53;;;;;;;-145.18;100.00;46672.13;5062401;28;20082;-70
2022/10/16 07:06:37;;;;;;;6.80;3.17;;;;;;;-145.18;100.00;46679.94;5065146;28;20496;-69
2022/10/16 07:09:05;;;;;;;5.50;3.07;;;;;;;-145.18;100.00;46676.03;5055017;28;20037;-69
2022/10/16 07:11:31;;;;;;;11.70;3.07;;;;;;;-145.18;100.00;46679.94;5064339;28;20047;-69
2022/10/16 07:13:57;;;;;;;4.67;2.50;;;;;;;-145.18;100.00;46677.97;5071428;28;20029;-69
2022/10/16 07:16:26;;;;;;;5.43;3.27;;;;;;;-145.18;100.00;46679.94;5070909;28;20675;-69
2022/10/16 07:18:57;;;;;;;6.60;3.03;;;;;;;-145.18;100.00;46674.06;5070594;28;20111;-69
2022/10/16 07:21:25;;;;;;;8.57;2.80;;;;;;;-145.18;100.00;46687.75;5071550;28;20028;-69
2022/10/16 07:23:51;;;;;;;7.53;2.70;;;;;;;-145.18;100.00;46677.97;5070705;28;20036;-69
2022/10/16 07:26:16;;;;;;;6.40;2.57;;;;;;;-145.18;100.00;46681.88;5071298;28;20769;-69
2022/10/16 07:28:43;;;;;;;16.73;4.57;;;;;;;-145.18;100.00;46674.06;5070958;28;20033;-69
2022/10/16 07:31:11;;;;;;;9.37;2.60;;;;;;;-145.18;100.00;46679.94;5069360;28;20428;-69
2022/10/16 07:33:38;;;;;;;7.03;2.80;;;;;;;-145.18;100.00;46683.84;5059363;28;20021;-69
2022/10/16 07:36:04;;;;;;;8.53;2.97;;;;;;;-145.18;100.00;46685.78;5060554;28;20043;-69
2022/10/16 07:38:30;;;;;;;10.10;3.70;;;;;;;-145.18;100.00;46687.75;5061254;28;20047;-69
2022/10/16 07:40:59;;;;;;;5.67;2.87;;;;;;;-145.18;100.00;46679.94;5062330;28;20465;-69
2022/10/16 07:43:26;;;;;;;6.67;2.73;;;;;;;-145.18;100.00;46687.75;5070894;28;20035;-69
2022/10/16 07:45:52;;;;;;;5.80;2.67;;;;;;;-145.18;100.00;46685.78;5071283;28;20044;-69
2022/10/16 07:48:18;;;;;;;7.70;2.80;;;;;;;-145.18;100.00;46679.94;5070928;28;20055;-69
2022/10/16 07:50:44;;;;;;;6.17;2.70;;;;;;;-145.18;100.00;46687.75;5073374;28;20081;-69
2022/10/16 07:53:10;;;;;;;7.77;2.70;;;;;;;-145.18;100.00;46677.97;5070868;28;20036;-69
2022/10/16 07:55:36;;;;;;;9.37;2.90;;;;;;;-145.18;100.00;46683.84;5071256;28;20032;-69
2022/10/16 07:58:01;;;;;;;12.90;3.40;;;;;;;-145.18;100.00;46681.88;5070210;28;20036;-69
2022/10/16 08:00:27;;;;;;;5.93;2.47;;;;;;;-145.18;100.00;46683.84;5069326;28;20470;-69
2022/10/16 08:02:52;;;;;;;10.60;2.93;;;;;;;-145.18;100.00;46679.94;5070082;28;20131;-69
2022/10/16 08:05:17;;;;;;;8.33;2.70;;;;;;;-145.18;100.00;46681.88;5071235;28;20650;-69
2022/10/16 08:07:47;;;;;;;8.67;2.60;;;;;;;-145.18;100.00;46681.88;5070875;28;20067;-69
2022/10/16 08:10:18;;;;;;;8.63;2.93;;;;;;;-145.18;100.00;46681.88;5071249;28;20397;-69
2022/10/16 08:12:44;;;;;;;9.07;2.80;;;;;;;-145.18;100.00;46681.88;5071161;28;20489;-70
2022/10/16 08:15:10;;;;;;;8.90;2.47;;;;;;;-145.18;100.00;46683.84;5061837;28;20033;-69
2022/10/16 08:17:36;;;;;;;8.43;2.63;;;;;;;-145.18;100.00;46683.84;5059502;28;20087;-70
2022/10/16 08:20:02;;;;;;;7.20;2.33;;;;;;;-145.18;100.00;46683.84;5061108;28;20036;-69
2022/10/16 08:22:27;;;;;;;6.30;2.33;;;;;;;-145.18;100.00;46691.66;5061199;28;20029;-70
2022/10/16 08:24:53;;;;;;;7.73;2.43;;;;;;;-145.18;100.00;46693.59;5058740;28;20041;-69
2022/10/16 08:27:18;;;;;;;7.57;2.93;;;;;;;-145.18;100.00;46689.69;5065726;28;20032;-70
2022/10/16 08:29:43;;;;;;;7.63;2.43;;;;;;;-145.18;100.00;46693.59;5065288;28;20029;-69
2022/10/16 08:32:09;;;;;;;10.50;2.23;;;;;;;-145.18;100.00;46689.69;5061529;28;20082;-69
2022/10/16 08:34:34;;;;;;;5.50;2.40;;;;;;;-145.18;100.00;46691.66;5070099;28;20079;-69
2022/10/16 08:36:59;;;;;;;5.07;2.20;;;;;;;-145.18;100.00;46691.66;5070410;28;20064;-69
2022/10/16 08:39:25;;;;;;;9.40;3.10;;;;;;;-145.18;100.00;46691.66;5056556;28;20068;-69
2022/10/16 08:42:04;;;;;;;11.20;2.53;;;;;;;-145.18;100.00;46695.56;5064772;28;20079;-69
2022/10/16 08:44:30;;;;;;;12.77;2.77;;;;;;;-145.18;100.00;46695.56;5049798;28;20025;-69
2022/10/16 08:46:58;;;;;;;7.83;2.17;;;;;;;-145.18;100.00;46697.50;5064747;28;20031;-70
2022/10/16 08:49:24;;;;;;;9.73;2.53;;;;;;;-145.18;100.00;46689.69;5069923;28;20115;-70
2022/10/16 08:51:50;;;;;;;9.17;2.37;;;;;;;-145.18;100.00;46697.50;5068936;28;20044;-70
2022/10/16 08:54:28;;;;;;;10.97;2.40;;;;;;;-145.18;100.00;46695.56;5070184;28;20044;-70
2022/10/16 08:57:06;;;;;;;8.70;2.10;;;;;;;-145.18;100.00;46693.59;5069843;28;20500;-70
2022/10/16 08:59:31;;;;;;;7.93;2.23;;;;;;;-145.18;100.00;46691.66;5069594;28;20040;-70
2022/10/16 09:01:57;;;;;;;11.90;2.20;;;;;;;-145.18;100.00;46693.59;5069437;28;20036;-70
2022/10/16 09:04:46;;;;;;;11.90;2.30;;;;;;;-145.18;100.00;46689.69;5069800;28;20131;-70
2022/10/16 09:07:31;;;;;;;10.80;2.57;;;;;;;-145.18;100.00;46691.66;5069665;28;20036;-70
2022/10/16 09:10:33;;;;;;;10.10;3.37;;;;;;;-145.18;100.00;46685.78;5069616;28;20028;-70
2022/10/16 09:13:24;;;;;;;6.10;2.07;;;;;;;-145.18;100.00;46679.94;5064952;28;20761;-70
2022/10/16 09:16:01;;;;;;;9.43;2.10;;;;;;;-145.18;100.00;46674.06;5062898;28;20039;-70
2022/10/16 09:18:29;;;;;;;7.37;2.23;;;;;;;-145.18;100.00;46662.34;5063257;28;20056;-70
2022/10/16 09:21:09;;;;;;;6.87;2.33;;;;;;;-145.18;100.00;46656.50;5062250;28;20121;-70
2022/10/16 09:23:37;;;;;;;11.33;2.20;;;;;;;-145.18;100.00;46660.41;5052886;28;20052;-70
2022/10/16 09:26:04;;;;;;;13.07;2.37;;;;;;;-145.18;100.00;46666.25;5067214;28;20029;-70
2022/10/16 09:28:30;;;;;;;7.60;1.90;;;;;;;-145.18;100.00;46662.34;5066703;28;20048;-70
2022/10/16 09:30:55;;;;;;;7.73;2.13;;;;;;;-145.18;100.00;46666.25;5052744;28;20032;-70
2022/10/16 09:33:25;;;;;;;10.80;2.00;;;;;;;-145.18;100.00;46670.16;5063871;28;20042;-70
2022/10/16 09:35:54;;;;;;;12.60;2.03;;;;;;;-145.18;100.00;46666.25;5064170;28;20063;-70
2022/10/16 09:38:25;;;;;;;9.97;2.97;;;;;;;-145.18;100.00;46646.72;5063989;28;20031;-70
2022/10/16 09:40:51;;;;;;;9.53;1.80;;;;;;;-145.18;100.00;46635.00;5058667;28;20591;-70
2022/10/16 09:43:32;;;;;;;13.90;2.97;;;;;;;-145.18;100.00;46642.81;5059590;28;20024;-70
2022/10/16 09:46:03;;;;;;;11.27;2.73;;;;;;;-145.18;100.00;46611.56;5058638;28;20051;-71
2022/10/16 09:48:37;;;;;;;12.80;2.63;;;;;;;-145.18;100.00;46588.13;5058632;28;20401;-70
2022/10/16 09:51:04;;;;;;;8.93;2.10;;;;;;;-145.18;100.00;46580.31;5061800;28;20028;-71
2022/10/16 09:53:45;;;;;;;14.47;3.07;;;;;;;-145.18;100.00;46574.44;5062768;28;20052;-70
2022/10/16 09:56:20;;;;;;;11.50;2.33;;;;;;;-145.18;100.00;46580.31;5061525;28;20785;-70
2022/10/16 09:58:51;;;;;;;10.27;2.30;;;;;;;-145.18;100.00;46593.97;5060499;28;20033;-71
2022/10/16 10:01:16;;;;;;;11.63;2.40;;;;;;;-145.18;100.00;46595.94;5060602;28;20581;-70
2022/10/16 10:03:44;;;;;;;17.07;3.07;;;;;;;-145.18;100.00;46593.97;5056421;28;20052;-70
2022/10/16 10:06:23;;;;;;;13.13;2.90;;;;;;;-145.18;100.00;46597.88;5057239;28;20059;-70
2022/10/16 10:09:26;;;;;;;12.40;2.37;;;;;;;-145.18;100.00;46593.97;5068257;28;20040;-71
2022/10/16 10:11:55;;;;;;;14.47;2.33;;;;;;;-145.18;100.00;46595.94;5071602;28;20032;-71
2022/10/16 10:14:24;;;;;;;11.70;2.03;;;;;;;-145.18;100.00;46609.59;5068440;28;20110;-70
2022/10/16 10:16:51;;;;;;;16.00;2.63;;;;;;;-145.18;100.00;46613.50;5061880;28;20039;-71
2022/10/16 10:19:18;;;;;;;12.13;2.00;;;;;;;-145.18;100.00;46623.28;5072920;28;20033;-71
2022/10/16 10:21:44;;;;;;;13.93;2.57;;;;;;;-145.18;100.00;46625.22;5071697;28;20029;-71
2022/10/16 10:24:15;;;;;;;12.17;2.73;;;;;;;-145.18;100.00;46617.41;5063098;28;20028;-71
2022/10/16 10:26:46;;;;;;;14.33;2.27;;;;;;;-145.18;100.00;46629.13;5072729;28;20028;-71
2022/10/16 10:29:20;;;;;;;13.63;2.27;;;;;;;-145.18;100.00;46633.06;5062400;28;20031;-71
2022/10/16 10:31:58;;;;;;;13.73;2.27;;;;;;;-145.18;100.00;46625.22;5059222;28;20039;-70
2022/10/16 10:35:00;;;;;;;15.33;2.57;;;;;;;-145.18;100.00;46629.13;5072410;28;20029;-71
2022/10/16 10:37:41;;;;;;;12.43;2.30;;;;;;;-145.18;100.00;46654.53;5066678;28;20552;-71
2022/10/16 10:40:41;;;;;;;10.40;2.10;;;;;;;-145.18;100.00;46670.16;5064925;28;20039;-71
2022/10/16 10:43:33;;;;;;;17.17;2.97;;;;;;;-145.18;100.00;46683.84;5072160;28;20536;-71
2022/10/16 10:46:03;;;;;;;14.20;2.20;;;;;;;-145.18;100.00;46707.28;5072247;28;20098;-71
2022/10/16 10:48:31;;;;;;;17.17;2.63;;;;;;;-145.18;100.00;46701.41;5069162;28;20040;-71
2022/10/16 10:51:10;;;;;;;12.97;2.07;;;;;;;-145.18;100.00;46693.59;5052507;28;20537;-71
2022/10/16 10:53:51;;;;;;;10.60;2.33;;;;;;;-145.18;100.00;46709.22;5052377;28;20043;-71
2022/10/16 10:56:26;;;;;;;16.40;2.53;;;;;;;-145.18;100.00;46720.94;5054673;28;20150;-71
2022/10/16 10:58:57;;;;;;;16.98;2.50;;;;;;;-145.18;100.00;46756.09;5072138;28;20561;-71
2022/10/16 11:01:28;;;;;;;14.33;2.47;;;;;;;-145.18;100.00;46726.81;5072382;28;20044;-70
2022/10/16 11:04:03;;;;;;;12.80;2.37;;;;;;;-145.18;100.00;46713.13;5063015;28;20143;-71
2022/10/16 11:06:39;;;;;;;9.45;2.38;;;;;;;-145.18;100.00;46699.47;5055347;28;20036;-71
2022/10/16 11:09:15;;;;;;;11.53;2.43;;;;;;;-145.18;100.00;46836.19;5061458;28;20173;-71
2022/10/16 11:11:42;;;;;;;;;;;;;;;-145.18;100.00;46959.25;5065375;28;20044;-71
2022/10/16 11:14:18;;;;;;;10.17;2.63;;;;;;;-145.18;100.00;46842.06;5070342;28;19916;-71